Sequoia / Kings National Park, CA

12:47 AM PDT on October 26, 2014 (GMT -0700)
RAWS OWENS VALLEY CA US | Change Station
CLOSE
Current Station
Personal Weather Station
Location: Bishop, CA
Elevation: 4649 ft
Nearby Weather Stations
Active Advisory: Wind Advisory

Elev 4649 ft 37.39 °N, 118.55 °W | Updated 53 minutes ago

Clear
Clear
54 °F
Feels Like 54 °F
N
2
Wind Variable Wind from East
Gusts 7.0 mph

Today
High -- | Low -- °F
--% Chance of Precip.
Yesterday
High -- | Low -- °F
Precip. -- in
7:12 AM 6:02 PM
Waxing Crescent, 6% visible
Pressure 29.89 in
Visibility 10.0 miles
Clouds Clear
Dew Point 10 °F
Humidity 17%
Rainfall 0.00 in
Snow Depth Not available.
UV 0 out of 12
Pollen 2.00 out of 12
Air Quality Not available.
Flu Activity Sporadic
METAR KBIH 260656Z AUTO 24005KT 10SM CLR 07/M10 A2999 RMK AO2 SLP120 T00721100

More Conditions Fewer Conditions

Pressure 29.89 in
Visibility 10.0 miles
Clouds Clear
Dew Point 10 °F
Humidity 17%
Rainfall 0.00 in
Snow Depth Not available.
UV 0 out of 12
Pollen 2.00 out of 12
Air Quality Not available.
Flu Activity Sporadic
METAR KBIH 260656Z AUTO 24005KT 10SM CLR 07/M10 A2999 RMK AO2 SLP120 T00721100

More Conditions Fewer Conditions

10-Day Weather Forecast

Almanac

Astronomy

Oct. 26, 2014 Rise Set
Actual Time 7:12 AM PDT 6:02 PM PDT
Civil Twilight 6:45 AM PDT 6:29 PM PDT
Nautical Twilight 6:15 AM PDT 6:59 PM PDT
Astronomical Twilight 5:44 AM PDT 7:30 PM PDT
Moon 9:53 AM PDT 8:20 PM PDT
Length of Visible Light 11h 43m
Length of Day
10h 49m
Tomorrow will be 2m 10s shorter.
Waxing Crescent, 6% of the Moon is Illuminated
Today
Waxing Crescent
Oct 30
First Quarter
Nov 6
Full
Nov 14
Last Quarter
Nov 22
New

Today's Extremes

State Highs State Lows

Community

WunderPhotos

Upload Photos

1,765,115 photos uploaded!

Nearby

Snow Depth

Station Depth Elevation
Virginia Lakes Ridge 0 in 9200 ft
Leavitt Lake 2 in 9400 ft
Leavitt Meadows 1 in 7200 ft
Sonora Pass 1 in 8800 ft
Summit Meadow 0 in 9122 ft

Earthquake Activity

City Distance Mag. Time & Date
Lone Pine, California 88 miles 3.6 7:31 AM PDT
2014-10-25
Minimum magnitude displayed is 2.5.

Coastal Water Temperatures

Place Temperature
No Stations Reporting

Nearby Weather Stations